createdAt,value
2019-05-23T00:00:32.974Z,42.10
2019-05-23T00:03:57.879Z,42.10
2019-05-23T00:07:13.757Z,42.10
2019-05-23T00:10:37.868Z,42.10
2019-05-23T00:13:54.123Z,42.10
2019-05-23T00:16:47.002Z,42.10
2019-05-23T00:19:41.582Z,42.10
2019-05-23T00:22:35.129Z,42.20
2019-05-23T00:25:28.067Z,42.10
2019-05-23T00:28:21.609Z,42.10
2019-05-23T00:31:27.854Z,42.10
2019-05-23T00:34:21.001Z,42.10
2019-05-23T00:37:15.030Z,42.10
2019-05-23T00:40:07.582Z,42.10
2019-05-23T00:43:00.682Z,42.10
2019-05-23T00:45:53.597Z,42.10
2019-05-23T00:48:47.641Z,42.10
2019-05-23T00:51:41.094Z,42.20
2019-05-23T00:54:34.329Z,42.10
2019-05-23T00:57:29.534Z,42.20
2019-05-23T01:00:25.368Z,42.30
2019-05-23T01:03:19.956Z,42.30
2019-05-23T01:06:14.626Z,42.30
2019-05-23T01:09:08.092Z,42.30
2019-05-23T01:12:01.342Z,42.30
2019-05-23T01:14:54.601Z,42.30
2019-05-23T01:17:48.991Z,42.30
2019-05-23T01:21:09.145Z,42.30
2019-05-23T01:24:07.787Z,42.40
2019-05-23T01:27:00.818Z,42.30
2019-05-23T01:29:53.503Z,42.40
2019-05-23T01:32:49.154Z,43.00
2019-05-23T01:35:42.984Z,42.40
2019-05-23T01:38:36.060Z,42.40
2019-05-23T01:41:29.490Z,42.30
2019-05-23T01:44:22.603Z,42.30
2019-05-23T01:47:16.745Z,42.40
2019-05-23T01:50:11.918Z,42.30
2019-05-23T01:53:05.888Z,42.30
2019-05-23T01:55:59.320Z,42.30
2019-05-23T01:58:52.752Z,42.30
2019-05-23T02:01:46.276Z,42.30
2019-05-23T02:04:39.868Z,41.70
2019-05-23T02:07:32.837Z,42.30
2019-05-23T02:10:26.669Z,42.30
2019-05-23T02:13:19.651Z,42.30
2019-05-23T02:16:13.463Z,42.30
2019-05-23T02:19:07.177Z,42.30
2019-05-23T02:22:00.824Z,42.40
2019-05-23T02:24:54.408Z,42.40
2019-05-23T02:27:48.090Z,42.40
2019-05-23T02:30:41.917Z,42.50
2019-05-23T02:33:36.726Z,42.40
2019-05-23T02:36:29.820Z,42.40
2019-05-23T02:39:39.702Z,42.40
2019-05-23T02:42:41.788Z,42.50
2019-05-23T02:45:40.076Z,42.50
2019-05-23T02:48:37.957Z,42.60
2019-05-23T02:51:33.958Z,42.50
2019-05-23T02:54:30.862Z,42.60
2019-05-23T02:57:25.139Z,42.60
2019-05-23T03:00:52.487Z,42.60
2019-05-23T03:03:34.104Z,42.60
2019-05-23T03:06:28.435Z,42.70
2019-05-23T03:09:24.676Z,42.70
2019-05-23T03:12:18.509Z,42.80
2019-05-23T03:15:13.583Z,42.80
2019-05-23T03:18:06.912Z,42.90
2019-05-23T03:21:00.969Z,42.90
2019-05-23T03:23:54.921Z,43.00
2019-05-23T03:27:06.986Z,43.10
2019-05-23T03:30:00.777Z,43.20
2019-05-23T03:32:58.923Z,43.30
2019-05-23T03:35:55.383Z,43.40
2019-05-23T03:39:03.056Z,43.40
2019-05-23T03:42:01.173Z,43.50
2019-05-23T03:45:03.923Z,43.50
2019-05-23T03:48:00.167Z,43.60
2019-05-23T03:51:02.508Z,43.60
2019-05-23T03:54:06.647Z,43.60
2019-05-23T03:57:15.954Z,43.80
2019-05-23T04:00:30.224Z,43.90
2019-05-23T04:03:30.108Z,44.00
2019-05-23T04:06:35.697Z,44.00
2019-05-23T04:09:30.366Z,44.10
2019-05-23T04:12:25.383Z,44.10
2019-05-23T04:15:19.180Z,44.20
2019-05-23T04:18:14.205Z,44.30
2019-05-23T04:21:07.549Z,44.40
2019-05-23T04:24:07.472Z,44.50
2019-05-23T04:27:02.361Z,44.50
2019-05-23T04:29:56.531Z,44.50
2019-05-23T04:32:54.031Z,44.60
2019-05-23T04:36:06.379Z,44.60
2019-05-23T04:39:20.646Z,45.70
2019-05-23T04:42:25.899Z,41.90
2019-05-23T04:45:27.162Z,39.00
2019-05-23T04:48:27.758Z,37.60
2019-05-23T04:51:35.519Z,37.10
2019-05-23T04:54:32.108Z,38.50
2019-05-23T04:57:33.257Z,42.20
2019-05-23T05:00:31.180Z,49.80
2019-05-23T05:03:37.080Z,48.80
2019-05-23T05:06:42.755Z,42.50
2019-05-23T05:09:52.432Z,38.90
2019-05-23T05:13:08.046Z,36.90
2019-05-23T05:16:40.497Z,35.90
2019-05-23T05:19:55.959Z,35.60
2019-05-23T05:26:20.315Z,36.00
2019-05-23T05:29:45.093Z,36.00
2019-05-23T05:36:15.963Z,35.50
2019-05-23T05:39:27.668Z,35.10
2019-05-23T05:42:39.809Z,35.20
2019-05-23T05:49:17.090Z,36.20
2019-05-23T05:52:36.760Z,36.30
2019-05-23T05:55:39.172Z,36.10
2019-05-23T06:11:57.073Z,36.40
2019-05-23T06:15:09.113Z,36.10
2019-05-23T06:18:04.883Z,35.80
2019-05-23T06:21:00.529Z,35.90
2019-05-23T06:23:53.776Z,35.90
2019-05-23T06:26:56.275Z,35.90
2019-05-23T06:30:05.353Z,35.70
2019-05-23T06:33:24.346Z,35.50
2019-05-23T06:36:29.811Z,35.70
2019-05-23T06:39:41.713Z,36.10
2019-05-23T06:42:49.631Z,36.00
2019-05-23T06:45:49.018Z,35.60
2019-05-23T06:48:46.157Z,35.20
2019-05-23T06:51:41.010Z,35.00
2019-05-23T06:54:41.422Z,35.30
2019-05-23T06:57:36.669Z,35.70
2019-05-23T07:00:37.852Z,36.20
2019-05-23T07:03:42.360Z,36.50
2019-05-23T07:06:40.741Z,36.20
2019-05-23T07:09:43.874Z,36.30
2019-05-23T07:12:58.680Z,35.30
2019-05-23T07:16:05.205Z,35.20
2019-05-23T07:19:05.367Z,35.40
2019-05-23T07:22:21.516Z,35.30
2019-05-23T07:25:17.256Z,35.30
2019-05-23T07:28:28.771Z,35.20
2019-05-23T07:31:25.948Z,35.40
2019-05-23T07:34:26.889Z,35.00
2019-05-23T07:40:36.818Z,34.60
2019-05-23T07:43:44.983Z,34.70
2019-05-23T07:46:52.766Z,35.10
2019-05-23T07:49:59.174Z,35.20
2019-05-23T07:52:58.889Z,34.90
2019-05-23T07:56:00.293Z,35.30
2019-05-23T07:58:56.675Z,35.20
2019-05-23T08:02:00.895Z,35.10
2019-05-23T08:05:03.015Z,35.00
2019-05-23T08:08:00.934Z,35.10
2019-05-23T08:17:53.382Z,33.70
2019-05-23T08:20:50.005Z,33.70
2019-05-23T08:23:47.202Z,33.80
2019-05-23T08:26:43.166Z,33.90
2019-05-23T08:29:43.533Z,33.90
2019-05-23T08:33:07.484Z,34.00
2019-05-23T08:36:15.035Z,34.10
2019-05-23T08:39:12.335Z,34.20
2019-05-23T08:42:16.214Z,34.50
2019-05-23T08:45:18.829Z,34.50
2019-05-23T08:48:26.565Z,34.60
2019-05-23T08:51:26.113Z,34.80
2019-05-23T08:54:20.096Z,34.90
2019-05-23T08:57:27.895Z,35.10
2019-05-23T09:00:34.371Z,35.20
2019-05-23T09:03:49.335Z,35.40
2019-05-23T09:06:47.792Z,35.50
2019-05-23T09:09:45.230Z,35.70
2019-05-23T09:12:42.163Z,36.00
2019-05-23T09:15:37.470Z,36.10
2019-05-23T09:18:35.319Z,36.30
2019-05-23T09:25:25.490Z,36.50
2019-05-23T09:28:39.160Z,36.80
2019-05-23T09:35:20.601Z,37.40
2019-05-23T09:41:34.114Z,37.40
2019-05-23T09:44:37.135Z,40.50
2019-05-23T09:47:38.205Z,38.40
2019-05-23T09:50:37.238Z,36.80
2019-05-23T09:53:36.353Z,35.00
2019-05-23T09:56:33.941Z,35.50
2019-05-23T09:59:29.182Z,35.40
2019-05-23T10:02:25.023Z,35.00
2019-05-23T10:05:38.600Z,34.90
2019-05-23T10:08:35.754Z,34.90
2019-05-23T10:11:43.695Z,34.70
2019-05-23T10:14:44.105Z,35.00
2019-05-23T10:17:44.419Z,34.50
2019-05-23T10:20:45.358Z,34.30
2019-05-23T10:23:44.531Z,34.10
2019-05-23T10:26:43.108Z,34.00
2019-05-23T10:29:40.829Z,34.80
2019-05-23T10:32:37.541Z,34.30
2019-05-23T10:35:59.930Z,34.30
2019-05-23T10:42:34.255Z,34.50
2019-05-23T10:45:37.924Z,34.60
2019-05-23T10:48:51.986Z,34.80
2019-05-23T10:52:04.981Z,34.50
2019-05-23T11:01:54.241Z,34.70
2019-05-23T11:11:29.718Z,34.90
2019-05-23T11:14:29.137Z,35.00
2019-05-23T11:29:27.512Z,35.30
2019-05-23T11:32:26.016Z,36.00
2019-05-23T11:35:24.795Z,36.10
2019-05-23T11:38:27.819Z,36.10
2019-05-23T11:41:24.297Z,35.30
2019-05-23T11:44:24.334Z,35.80
2019-05-23T11:56:32.486Z,35.60
2019-05-23T11:59:40.165Z,35.90
2019-05-23T12:02:49.325Z,35.80
2019-05-23T12:05:48.281Z,35.80
2019-05-23T12:08:48.897Z,35.90
2019-05-23T12:11:46.976Z,35.80
2019-05-23T12:14:45.166Z,36.00
2019-05-23T12:18:01.057Z,36.00
2019-05-23T12:20:48.877Z,33.70
2019-05-23T12:23:48.125Z,36.10
2019-05-23T12:30:07.345Z,36.10
2019-05-23T12:33:14.999Z,36.10
2019-05-23T12:36:16.826Z,36.10
2019-05-23T12:39:21.760Z,36.10
2019-05-23T12:42:18.639Z,36.20
2019-05-23T12:45:13.490Z,36.30
2019-05-23T12:48:13.345Z,36.40
2019-05-23T12:51:05.884Z,36.40
2019-05-23T12:53:59.935Z,36.40
2019-05-23T12:56:57.835Z,36.20
2019-05-23T13:05:47.041Z,36.30
2019-05-23T13:08:46.359Z,36.30
2019-05-23T13:11:45.946Z,36.30
2019-05-23T13:14:45.617Z,36.40
2019-05-23T13:17:44.470Z,36.20
2019-05-23T13:20:40.011Z,36.20
2019-05-23T13:23:43.479Z,36.10
2019-05-23T13:26:40.553Z,36.10
2019-05-23T13:29:35.313Z,36.20
2019-05-23T13:32:28.458Z,36.30
2019-05-23T13:35:22.655Z,36.20
2019-05-23T13:38:17.366Z,36.20
2019-05-23T13:41:11.402Z,36.20
2019-05-23T13:44:05.123Z,36.20
2019-05-23T13:46:59.593Z,36.30
2019-05-23T13:49:53.347Z,36.30
2019-05-23T13:52:46.759Z,36.40
2019-05-23T13:55:41.754Z,36.50
2019-05-23T13:58:36.626Z,36.50
2019-05-23T14:01:31.552Z,36.60
2019-05-23T14:04:25.676Z,36.60
2019-05-23T14:07:23.751Z,36.70
2019-05-23T14:10:17.851Z,36.80
2019-05-23T14:13:11.107Z,36.90
2019-05-23T14:16:04.607Z,36.90
2019-05-23T14:19:00.498Z,37.00
2019-05-23T14:21:54.266Z,37.10
2019-05-23T14:24:47.219Z,37.10
2019-05-23T14:27:49.651Z,37.20
2019-05-23T14:30:49.098Z,37.30
2019-05-23T14:34:09.267Z,37.30
2019-05-23T14:37:20.921Z,37.40
2019-05-23T14:40:17.556Z,37.50
2019-05-23T14:43:18.976Z,37.50
2019-05-23T14:46:14.995Z,37.60
2019-05-23T14:49:20.803Z,37.60
2019-05-23T14:52:21.173Z,37.80
2019-05-23T14:55:15.409Z,37.90
2019-05-23T14:58:10.320Z,37.90
2019-05-23T15:01:04.085Z,38.00
2019-05-23T15:03:58.491Z,38.10
2019-05-23T15:06:51.787Z,38.10
2019-05-23T15:09:45.310Z,38.30
2019-05-23T15:12:40.103Z,38.30
2019-05-23T15:15:34.994Z,38.30
2019-05-23T15:18:29.126Z,38.40
2019-05-23T15:21:23.714Z,39.10
2019-05-23T15:24:17.754Z,38.50
2019-05-23T15:27:12.129Z,38.50
2019-05-23T15:30:05.172Z,38.60
2019-05-23T15:32:58.253Z,38.70
2019-05-23T15:35:51.696Z,38.80
2019-05-23T15:38:44.675Z,38.90
2019-05-23T15:41:39.130Z,39.00
2019-05-23T15:44:33.117Z,39.20
2019-05-23T15:47:29.656Z,39.10
2019-05-23T15:50:25.433Z,39.30
2019-05-23T15:53:35.141Z,39.30
2019-05-23T15:57:00.034Z,39.50
2019-05-23T16:00:03.250Z,39.60
2019-05-23T16:03:09.176Z,39.60
2019-05-23T16:06:03.395Z,39.80
2019-05-23T16:08:59.110Z,39.80
2019-05-23T16:11:52.951Z,39.90
2019-05-23T16:14:46.536Z,40.00
2019-05-23T16:17:40.983Z,40.10
2019-05-23T16:20:34.902Z,40.20
2019-05-23T16:23:29.498Z,40.40
2019-05-23T16:26:24.178Z,40.40
2019-05-23T16:29:18.281Z,40.40
2019-05-23T16:32:12.187Z,40.50
2019-05-23T16:35:06.830Z,40.60
2019-05-23T16:38:00.854Z,41.20
2019-05-23T16:40:59.339Z,40.80
2019-05-23T16:43:53.440Z,40.80
2019-05-23T16:46:47.025Z,41.00
2019-05-23T16:49:40.984Z,41.00
2019-05-23T16:52:35.539Z,41.00
2019-05-23T16:55:46.378Z,41.20
2019-05-23T16:58:56.315Z,41.20
2019-05-23T17:02:06.424Z,41.30
2019-05-23T17:08:08.995Z,41.50
2019-05-23T17:11:08.581Z,41.40
2019-05-23T17:14:19.754Z,41.50
2019-05-23T17:17:56.792Z,41.50
2019-05-23T17:21:01.925Z,41.60
2019-05-23T17:24:13.205Z,41.70
2019-05-23T17:27:16.049Z,41.80
2019-05-23T17:30:31.510Z,41.90
2019-05-23T17:33:25.010Z,42.00
2019-05-23T17:36:18.953Z,42.00
2019-05-23T17:39:16.700Z,42.00
2019-05-23T17:42:12.063Z,42.00
2019-05-23T17:45:05.570Z,42.10
2019-05-23T17:47:59.257Z,42.10
2019-05-23T17:50:53.070Z,42.10
2019-05-23T17:53:46.747Z,42.20
2019-05-23T17:56:41.976Z,42.30
2019-05-23T18:05:20.261Z,42.30
2019-05-23T18:08:14.161Z,42.40
2019-05-23T18:11:07.905Z,42.50
2019-05-23T18:14:01.645Z,42.50
2019-05-23T18:19:47.281Z,42.50
2019-05-23T18:22:40.741Z,42.60
2019-05-23T18:25:35.549Z,42.70
2019-05-23T18:28:30.141Z,42.60
2019-05-23T18:31:29.235Z,42.70
2019-05-23T18:37:16.087Z,42.80
2019-05-23T18:40:12.843Z,42.80
2019-05-23T18:43:07.989Z,42.80
2019-05-23T18:46:04.284Z,42.90
2019-05-23T18:48:58.438Z,42.90
2019-05-23T18:51:52.617Z,43.00
2019-05-23T18:54:46.574Z,43.10
2019-05-23T19:00:51.383Z,43.20
2019-05-23T19:06:37.106Z,43.20
2019-05-23T19:09:31.345Z,43.30
2019-05-23T19:12:26.322Z,43.30
2019-05-23T19:15:20.441Z,43.30
2019-05-23T19:18:15.448Z,43.30
2019-05-23T19:21:09.709Z,43.50
2019-05-23T19:24:03.832Z,43.40
2019-05-23T19:26:57.285Z,43.50
2019-05-23T19:29:51.276Z,43.50
2019-05-23T19:32:45.153Z,43.70
2019-05-23T19:35:39.506Z,43.70
2019-05-23T19:41:36.022Z,43.60
2019-05-23T19:47:11.429Z,41.50
2019-05-23T19:50:06.221Z,43.80
2019-05-23T19:53:01.054Z,43.80
2019-05-23T19:55:55.235Z,43.70
2019-05-23T19:58:48.562Z,43.70
2019-05-23T20:01:58.559Z,43.70
2019-05-23T20:04:59.887Z,43.80
2019-05-23T20:07:53.140Z,43.70
2019-05-23T20:10:46.794Z,43.90
2019-05-23T20:13:40.206Z,43.90
2019-05-23T20:16:33.520Z,43.80
2019-05-23T20:19:26.959Z,43.80
2019-05-23T20:22:20.081Z,43.90
2019-05-23T20:25:15.067Z,43.90
2019-05-23T20:28:08.345Z,43.90
2019-05-23T20:31:02.533Z,43.80
2019-05-23T20:33:56.257Z,43.80
2019-05-23T20:36:49.634Z,43.80
2019-05-23T20:39:43.241Z,43.90
2019-05-23T20:42:36.053Z,43.90
2019-05-23T20:45:28.911Z,43.90
2019-05-23T20:48:22.877Z,44.00
2019-05-23T20:54:08.146Z,44.10
2019-05-23T20:57:01.664Z,44.00
2019-05-23T20:59:55.586Z,44.00
2019-05-23T21:08:31.858Z,44.10
2019-05-23T21:11:24.963Z,44.10
2019-05-23T21:17:10.555Z,44.20
2019-05-23T21:25:53.396Z,43.90
2019-05-23T21:28:47.086Z,43.90
2019-05-23T21:31:42.294Z,44.00
2019-05-23T21:34:35.541Z,44.20
2019-05-23T21:46:01.355Z,44.20
2019-05-23T21:51:45.049Z,44.20
2019-05-23T22:00:23.947Z,44.30
2019-05-23T22:06:12.784Z,44.20
2019-05-23T22:09:07.001Z,44.30
2019-05-23T22:12:00.469Z,44.30
2019-05-23T22:17:44.216Z,44.40
2019-05-23T22:20:37.043Z,44.50
2019-05-23T22:23:30.390Z,44.50
2019-05-23T22:26:24.351Z,44.50
2019-05-23T22:29:18.167Z,44.40
2019-05-23T22:32:12.486Z,44.60
2019-05-23T22:35:13.516Z,44.60
2019-05-23T22:38:07.971Z,44.70
2019-05-23T22:41:01.405Z,44.60
2019-05-23T22:43:54.588Z,44.60
2019-05-23T22:46:47.808Z,44.60
2019-05-23T22:49:40.470Z,44.70
2019-05-23T22:52:34.164Z,44.80
2019-05-23T22:55:27.434Z,44.80
2019-05-23T23:01:11.906Z,44.90
2019-05-23T23:04:05.467Z,44.90
2019-05-23T23:12:39.775Z,45.10
2019-05-23T23:18:25.269Z,45.20
2019-05-23T23:21:18.763Z,45.30
2019-05-23T23:24:11.804Z,45.30
2019-05-23T23:27:05.197Z,45.30
2019-05-23T23:29:59.384Z,45.30
2019-05-23T23:41:26.681Z,45.40
2019-05-23T23:50:35.227Z,45.60
2019-05-23T23:53:45.018Z,45.70
2019-05-23T23:56:54.559Z,45.80
2019-05-23T23:59:45.216Z,45.70
